Terminal Aerodrome Forecast
Issued by NWS La Crosse, WI

Home | Current Version | Previous Version | Text Only | Print | Product List | Glossary On
Versions: 1 2 3 4 5 6 7 8 9 10 11 12 13 14 15 16 17 18 19 20 21 22 23 24 25 26 27 28 29
000
FTUS43 KARX 242320
TAFLSE
TAF
KLSE 242320Z 2500/2524 12008KT P6SM VCSH OVC012
     FM250400 13005KT 5SM BR VCSH OVC012
     FM251000 14007KT 5SM -SHRA BR OVC008
     FM251500 21012KT P6SM VCSH BKN012
     FM251700 22015G23KT P6SM BKN025
     FM252000 22015G23KT P6SM SCT025=

USA.gov is the U.S. government's official web portal to all federal, state and local government web resources and services.